sensor_id;sensor_type;location;lat;lon;timestamp;P1;durP1;ratioP1;P2;durP2;ratioP2
56201;SDS011;42117;50.360;3.508;2023-04-01T00:01:17;0.70;;;0.70;;
56201;SDS011;42117;50.360;3.508;2023-04-01T00:03:43;3.03;;;1.27;;
56201;SDS011;42117;50.360;3.508;2023-04-01T00:06:11;9.55;;;1.25;;
56201;SDS011;42117;50.360;3.508;2023-04-01T00:08:38;0.80;;;0.80;;
56201;SDS011;42117;50.360;3.508;2023-04-01T00:11:04;0.57;;;0.57;;
56201;SDS011;42117;50.360;3.508;2023-04-01T00:13:30;0.50;;;0.50;;
56201;SDS011;42117;50.360;3.508;2023-04-01T00:15:56;0.60;;;0.60;;
56201;SDS011;42117;50.360;3.508;2023-04-01T00:18:22;1.30;;;1.10;;
56201;SDS011;42117;50.360;3.508;2023-04-01T00:20:49;2.40;;;0.80;;
56201;SDS011;42117;50.360;3.508;2023-04-01T00:23:16;1.20;;;1.20;;
56201;SDS011;42117;50.360;3.508;2023-04-01T00:25:42;2.30;;;0.70;;
56201;SDS011;42117;50.360;3.508;2023-04-01T00:28:10;9.00;;;1.70;;
56201;SDS011;42117;50.360;3.508;2023-04-01T00:30:36;0.60;;;0.60;;
56201;SDS011;42117;50.360;3.508;2023-04-01T00:33:02;4.60;;;1.90;;
56201;SDS011;42117;50.360;3.508;2023-04-01T00:35:29;1.10;;;1.10;;
56201;SDS011;42117;50.360;3.508;2023-04-01T00:37:55;0.80;;;0.80;;
56201;SDS011;42117;50.360;3.508;2023-04-01T00:40:29;0.70;;;0.70;;
56201;SDS011;42117;50.360;3.508;2023-04-01T00:42:55;0.60;;;0.60;;
56201;SDS011;42117;50.360;3.508;2023-04-01T00:47:50;0.52;;;0.52;;
56201;SDS011;42117;50.360;3.508;2023-04-01T00:50:17;1.75;;;0.77;;
56201;SDS011;42117;50.360;3.508;2023-04-01T00:52:43;0.70;;;0.70;;
56201;SDS011;42117;50.360;3.508;2023-04-01T00:55:09;1.30;;;1.30;;
56201;SDS011;42117;50.360;3.508;2023-04-01T00:57:36;0.57;;;0.57;;
56201;SDS011;42117;50.360;3.508;2023-04-01T01:00:05;1.88;;;1.77;;
56201;SDS011;42117;50.360;3.508;2023-04-01T01:02:32;0.60;;;0.60;;
56201;SDS011;42117;50.360;3.508;2023-04-01T01:04:58;3.08;;;0.68;;
56201;SDS011;42117;50.360;3.508;2023-04-01T01:13:18;0.60;;;0.60;;
56201;SDS011;42117;50.360;3.508;2023-04-01T01:16:20;0.70;;;0.70;;
56201;SDS011;42117;50.360;3.508;2023-04-01T01:31:26;0.70;;;0.70;;
56201;SDS011;42117;50.360;3.508;2023-04-01T01:36:32;0.80;;;0.80;;
56201;SDS011;42117;50.360;3.508;2023-04-01T01:39:05;1.05;;;1.05;;
56201;SDS011;42117;50.360;3.508;2023-04-01T01:41:31;0.77;;;0.77;;
56201;SDS011;42117;50.360;3.508;2023-04-01T01:43:58;1.10;;;1.10;;
56201;SDS011;42117;50.360;3.508;2023-04-01T01:46:26;1.00;;;0.90;;
56201;SDS011;42117;50.360;3.508;2023-04-01T01:48:53;1.20;;;1.20;;
56201;SDS011;42117;50.360;3.508;2023-04-01T01:51:20;1.13;;;1.13;;
56201;SDS011;42117;50.360;3.508;2023-04-01T01:53:47;4.50;;;1.20;;
56201;SDS011;42117;50.360;3.508;2023-04-01T01:56:13;0.80;;;0.80;;
56201;SDS011;42117;50.360;3.508;2023-04-01T01:58:40;0.60;;;0.60;;
56201;SDS011;42117;50.360;3.508;2023-04-01T02:01:16;0.70;;;0.70;;
56201;SDS011;42117;50.360;3.508;2023-04-01T02:03:43;1.00;;;1.00;;
56201;SDS011;42117;50.360;3.508;2023-04-01T02:06:10;1.02;;;1.02;;
56201;SDS011;42117;50.360;3.508;2023-04-01T02:08:50;3.20;;;1.30;;
56201;SDS011;42117;50.360;3.508;2023-04-01T02:11:17;0.70;;;0.70;;
56201;SDS011;42117;50.360;3.508;2023-04-01T02:16:21;0.80;;;0.80;;
56201;SDS011;42117;50.360;3.508;2023-04-01T02:18:50;1.60;;;1.10;;
56201;SDS011;42117;50.360;3.508;2023-04-01T02:21:18;1.10;;;1.10;;
56201;SDS011;42117;50.360;3.508;2023-04-01T02:23:45;0.70;;;0.70;;
56201;SDS011;42117;50.360;3.508;2023-04-01T02:26:12;0.68;;;0.68;;
56201;SDS011;42117;50.360;3.508;2023-04-01T02:28:39;1.02;;;1.02;;
56201;SDS011;42117;50.360;3.508;2023-04-01T02:31:06;1.10;;;1.10;;
56201;SDS011;42117;50.360;3.508;2023-04-01T02:33:33;1.00;;;1.00;;
56201;SDS011;42117;50.360;3.508;2023-04-01T02:35:59;1.10;;;1.10;;
56201;SDS011;42117;50.360;3.508;2023-04-01T02:38:25;0.90;;;0.90;;
56201;SDS011;42117;50.360;3.508;2023-04-01T02:40:56;0.90;;;0.90;;
56201;SDS011;42117;50.360;3.508;2023-04-01T02:43:22;1.00;;;1.00;;
56201;SDS011;42117;50.360;3.508;2023-04-01T02:45:48;1.27;;;1.27;;
56201;SDS011;42117;50.360;3.508;2023-04-01T02:48:15;1.23;;;1.23;;
56201;SDS011;42117;50.360;3.508;2023-04-01T02:50:41;1.00;;;1.00;;
56201;SDS011;42117;50.360;3.508;2023-04-01T02:53:07;1.20;;;1.20;;
56201;SDS011;42117;50.360;3.508;2023-04-01T02:55:33;1.23;;;1.23;;
56201;SDS011;42117;50.360;3.508;2023-04-01T02:58:00;1.20;;;1.20;;
56201;SDS011;42117;50.360;3.508;2023-04-01T03:00:26;1.90;;;1.80;;
56201;SDS011;42117;50.360;3.508;2023-04-01T03:02:52;1.20;;;1.20;;
56201;SDS011;42117;50.360;3.508;2023-04-01T03:05:18;2.80;;;1.60;;
56201;SDS011;42117;50.360;3.508;2023-04-01T03:07:44;0.95;;;0.95;;
56201;SDS011;42117;50.360;3.508;2023-04-01T03:10:10;0.90;;;0.90;;
56201;SDS011;42117;50.360;3.508;2023-04-01T03:12:36;0.80;;;0.80;;
56201;SDS011;42117;50.360;3.508;2023-04-01T03:15:03;1.47;;;1.37;;
56201;SDS011;42117;50.360;3.508;2023-04-01T03:17:29;0.90;;;0.90;;
56201;SDS011;42117;50.360;3.508;2023-04-01T03:19:55;0.70;;;0.70;;
56201;SDS011;42117;50.360;3.508;2023-04-01T03:22:21;1.20;;;1.10;;
56201;SDS011;42117;50.360;3.508;2023-04-01T03:24:47;1.00;;;1.00;;
56201;SDS011;42117;50.360;3.508;2023-04-01T03:27:14;1.60;;;1.50;;
56201;SDS011;42117;50.360;3.508;2023-04-01T03:29:40;1.20;;;1.20;;
56201;SDS011;42117;50.360;3.508;2023-04-01T03:32:06;1.00;;;1.00;;
56201;SDS011;42117;50.360;3.508;2023-04-01T03:34:32;1.00;;;1.00;;
56201;SDS011;42117;50.360;3.508;2023-04-01T03:36:58;1.40;;;1.40;;
56201;SDS011;42117;50.360;3.508;2023-04-01T03:39:24;1.20;;;1.20;;
56201;SDS011;42117;50.360;3.508;2023-04-01T03:41:51;1.15;;;1.15;;
56201;SDS011;42117;50.360;3.508;2023-04-01T03:44:17;0.98;;;0.98;;
56201;SDS011;42117;50.360;3.508;2023-04-01T03:46:43;1.05;;;1.05;;
56201;SDS011;42117;50.360;3.508;2023-04-01T03:49:09;0.90;;;0.90;;
56201;SDS011;42117;50.360;3.508;2023-04-01T03:51:39;1.00;;;1.00;;
56201;SDS011;42117;50.360;3.508;2023-04-01T03:54:05;1.10;;;1.10;;
56201;SDS011;42117;50.360;3.508;2023-04-01T03:56:31;1.17;;;1.17;;
56201;SDS011;42117;50.360;3.508;2023-04-01T03:58:57;1.20;;;1.20;;
56201;SDS011;42117;50.360;3.508;2023-04-01T04:01:23;1.20;;;1.20;;
56201;SDS011;42117;50.360;3.508;2023-04-01T04:03:50;1.35;;;1.35;;
56201;SDS011;42117;50.360;3.508;2023-04-01T04:06:17;1.20;;;1.20;;
56201;SDS011;42117;50.360;3.508;2023-04-01T04:08:43;0.98;;;0.98;;
56201;SDS011;42117;50.360;3.508;2023-04-01T04:11:10;1.40;;;1.40;;
56201;SDS011;42117;50.360;3.508;2023-04-01T04:13:36;1.42;;;1.42;;
56201;SDS011;42117;50.360;3.508;2023-04-01T04:16:03;1.47;;;1.47;;
56201;SDS011;42117;50.360;3.508;2023-04-01T04:18:29;1.88;;;1.88;;
56201;SDS011;42117;50.360;3.508;2023-04-01T04:20:55;1.50;;;1.50;;
56201;SDS011;42117;50.360;3.508;2023-04-01T04:23:21;1.70;;;1.70;;
56201;SDS011;42117;50.360;3.508;2023-04-01T04:25:57;1.95;;;1.88;;
56201;SDS011;42117;50.360;3.508;2023-04-01T04:28:24;1.40;;;1.40;;
56201;SDS011;42117;50.360;3.508;2023-04-01T04:30:51;1.40;;;1.40;;
56201;SDS011;42117;50.360;3.508;2023-04-01T04:33:17;1.50;;;1.50;;
56201;SDS011;42117;50.360;3.508;2023-04-01T04:35:43;2.60;;;2.17;;
56201;SDS011;42117;50.360;3.508;2023-04-01T04:38:09;2.10;;;2.00;;
56201;SDS011;42117;50.360;3.508;2023-04-01T04:40:36;1.60;;;1.60;;
56201;SDS011;42117;50.360;3.508;2023-04-01T04:43:02;1.60;;;1.60;;
56201;SDS011;42117;50.360;3.508;2023-04-01T04:45:28;1.50;;;1.50;;
56201;SDS011;42117;50.360;3.508;2023-04-01T04:47:55;1.60;;;1.60;;
56201;SDS011;42117;50.360;3.508;2023-04-01T04:50:21;1.70;;;1.70;;
56201;SDS011;42117;50.360;3.508;2023-04-01T04:52:47;1.50;;;1.50;;
56201;SDS011;42117;50.360;3.508;2023-04-01T04:55:13;1.85;;;1.85;;
56201;SDS011;42117;50.360;3.508;2023-04-01T04:57:40;1.70;;;1.70;;
56201;SDS011;42117;50.360;3.508;2023-04-01T05:00:06;1.88;;;1.88;;
56201;SDS011;42117;50.360;3.508;2023-04-01T05:02:32;1.80;;;1.80;;
56201;SDS011;42117;50.360;3.508;2023-04-01T05:04:58;2.38;;;2.38;;
56201;SDS011;42117;50.360;3.508;2023-04-01T05:07:25;2.13;;;2.13;;
56201;SDS011;42117;50.360;3.508;2023-04-01T05:09:51;2.83;;;2.73;;
56201;SDS011;42117;50.360;3.508;2023-04-01T05:12:17;7.80;;;2.87;;
56201;SDS011;42117;50.360;3.508;2023-04-01T05:14:43;2.40;;;2.40;;
56201;SDS011;42117;50.360;3.508;2023-04-01T05:17:09;2.73;;;2.63;;
56201;SDS011;42117;50.360;3.508;2023-04-01T05:19:35;2.60;;;2.60;;
56201;SDS011;42117;50.360;3.508;2023-04-01T05:22:01;2.30;;;2.30;;
56201;SDS011;42117;50.360;3.508;2023-04-01T05:24:27;2.57;;;2.57;;
56201;SDS011;42117;50.360;3.508;2023-04-01T05:26:53;2.40;;;2.40;;
56201;SDS011;42117;50.360;3.508;2023-04-01T05:29:20;4.80;;;4.40;;
56201;SDS011;42117;50.360;3.508;2023-04-01T05:31:46;4.18;;;3.88;;
56201;SDS011;42117;50.360;3.508;2023-04-01T05:34:12;9.20;;;3.78;;
56201;SDS011;42117;50.360;3.508;2023-04-01T05:36:39;4.82;;;4.30;;
56201;SDS011;42117;50.360;3.508;2023-04-01T05:39:06;5.78;;;4.78;;
56201;SDS011;42117;50.360;3.508;2023-04-01T05:41:34;5.63;;;4.95;;
56201;SDS011;42117;50.360;3.508;2023-04-01T05:44:00;6.10;;;4.80;;
56201;SDS011;42117;50.360;3.508;2023-04-01T05:46:26;4.88;;;4.57;;
56201;SDS011;42117;50.360;3.508;2023-04-01T05:48:53;6.10;;;5.55;;
56201;SDS011;42117;50.360;3.508;2023-04-01T05:51:18;8.02;;;5.55;;
56201;SDS011;42117;50.360;3.508;2023-04-01T05:53:44;6.13;;;5.30;;
56201;SDS011;42117;50.360;3.508;2023-04-01T05:56:10;6.75;;;5.95;;
56201;SDS011;42117;50.360;3.508;2023-04-01T05:58:37;7.43;;;6.70;;
56201;SDS011;42117;50.360;3.508;2023-04-01T06:01:04;9.07;;;6.45;;
56201;SDS011;42117;50.360;3.508;2023-04-01T06:03:30;7.30;;;5.82;;
56201;SDS011;42117;50.360;3.508;2023-04-01T06:05:56;6.72;;;5.53;;
56201;SDS011;42117;50.360;3.508;2023-04-01T06:08:23;5.97;;;5.47;;
56201;SDS011;42117;50.360;3.508;2023-04-01T06:15:53;7.55;;;6.53;;
56201;SDS011;42117;50.360;3.508;2023-04-01T06:18:32;4.38;;;4.13;;
56201;SDS011;42117;50.360;3.508;2023-04-01T06:31:05;6.25;;;5.65;;
56201;SDS011;42117;50.360;3.508;2023-04-01T06:56:42;6.15;;;4.07;;
56201;SDS011;42117;50.360;3.508;2023-04-01T06:59:27;4.82;;;4.32;;
56201;SDS011;42117;50.360;3.508;2023-04-01T07:02:37;3.90;;;3.70;;
56201;SDS011;42117;50.360;3.508;2023-04-01T07:04:44;7.88;;;4.85;;
56201;SDS011;42117;50.360;3.508;2023-04-01T07:07:24;6.78;;;4.55;;
56201;SDS011;42117;50.360;3.508;2023-04-01T07:09:53;5.10;;;4.60;;
56201;SDS011;42117;50.360;3.508;2023-04-01T07:12:33;6.65;;;5.38;;
56201;SDS011;42117;50.360;3.508;2023-04-01T07:15:11;5.50;;;5.10;;
56201;SDS011;42117;50.360;3.508;2023-04-01T07:17:39;5.32;;;4.82;;
56201;SDS011;42117;50.360;3.508;2023-04-01T07:20:11;4.90;;;4.23;;
56201;SDS011;42117;50.360;3.508;2023-04-01T07:22:40;4.80;;;4.40;;
56201;SDS011;42117;50.360;3.508;2023-04-01T07:27:45;6.65;;;5.15;;
56201;SDS011;42117;50.360;3.508;2023-04-01T07:30:18;4.78;;;4.40;;
56201;SDS011;42117;50.360;3.508;2023-04-01T07:32:50;7.32;;;5.60;;
56201;SDS011;42117;50.360;3.508;2023-04-01T07:37:57;3.90;;;3.63;;
56201;SDS011;42117;50.360;3.508;2023-04-01T07:40:32;4.90;;;4.47;;
56201;SDS011;42117;50.360;3.508;2023-04-01T07:45:38;4.70;;;4.03;;
56201;SDS011;42117;50.360;3.508;2023-04-01T07:51:08;6.10;;;4.63;;
56201;SDS011;42117;50.360;3.508;2023-04-01T08:06:40;3.27;;;3.17;;
56201;SDS011;42117;50.360;3.508;2023-04-01T08:09:11;4.28;;;3.97;;
56201;SDS011;42117;50.360;3.508;2023-04-01T08:14:17;3.80;;;3.50;;
56201;SDS011;42117;50.360;3.508;2023-04-01T08:22:02;3.83;;;3.63;;
56201;SDS011;42117;50.360;3.508;2023-04-01T08:26:56;4.53;;;4.13;;
56201;SDS011;42117;50.360;3.508;2023-04-01T08:29:47;3.90;;;3.60;;
56201;SDS011;42117;50.360;3.508;2023-04-01T08:32:18;3.60;;;3.40;;
56201;SDS011;42117;50.360;3.508;2023-04-01T08:34:47;3.90;;;3.60;;
56201;SDS011;42117;50.360;3.508;2023-04-01T08:37:15;4.10;;;3.80;;
56201;SDS011;42117;50.360;3.508;2023-04-01T08:39:58;4.13;;;3.90;;
56201;SDS011;42117;50.360;3.508;2023-04-01T09:03:37;5.10;;;4.70;;
56201;SDS011;42117;50.360;3.508;2023-04-01T09:11:22;5.20;;;4.82;;
56201;SDS011;42117;50.360;3.508;2023-04-01T09:16:26;4.50;;;4.13;;
56201;SDS011;42117;50.360;3.508;2023-04-01T09:26:44;5.20;;;4.70;;
56201;SDS011;42117;50.360;3.508;2023-04-01T09:37:17;3.83;;;3.63;;
56201;SDS011;42117;50.360;3.508;2023-04-01T09:42:35;3.65;;;3.35;;
56201;SDS011;42117;50.360;3.508;2023-04-01T09:45:07;5.72;;;5.13;;
56201;SDS011;42117;50.360;3.508;2023-04-01T09:50:27;4.32;;;4.03;;
56201;SDS011;42117;50.360;3.508;2023-04-01T09:53:03;4.82;;;4.43;;
56201;SDS011;42117;50.360;3.508;2023-04-01T09:58:33;3.70;;;3.60;;
56201;SDS011;42117;50.360;3.508;2023-04-01T10:03:52;4.15;;;3.90;;
56201;SDS011;42117;50.360;3.508;2023-04-01T10:17:00;3.90;;;3.60;;
56201;SDS011;42117;50.360;3.508;2023-04-01T10:40:44;4.05;;;3.75;;
56201;SDS011;42117;50.360;3.508;2023-04-01T10:43:22;5.10;;;4.60;;
56201;SDS011;42117;50.360;3.508;2023-04-01T10:53:58;4.43;;;4.05;;
56201;SDS011;42117;50.360;3.508;2023-04-01T11:20:11;4.05;;;3.63;;
56201;SDS011;42117;50.360;3.508;2023-04-01T11:35:59;2.70;;;2.60;;
56201;SDS011;42117;50.360;3.508;2023-04-01T11:46:12;3.08;;;2.97;;
56201;SDS011;42117;50.360;3.508;2023-04-01T11:53:52;2.30;;;2.30;;
56201;SDS011;42117;50.360;3.508;2023-04-01T12:04:29;2.85;;;2.75;;
56201;SDS011;42117;50.360;3.508;2023-04-01T12:07:01;2.80;;;2.70;;
56201;SDS011;42117;50.360;3.508;2023-04-01T12:09:52;3.08;;;2.97;;
56201;SDS011;42117;50.360;3.508;2023-04-01T12:17:30;3.38;;;2.72;;
56201;SDS011;42117;50.360;3.508;2023-04-01T12:27:46;2.60;;;2.60;;
56201;SDS011;42117;50.360;3.508;2023-04-01T12:30:26;3.00;;;2.80;;
56201;SDS011;42117;50.360;3.508;2023-04-01T12:35:43;3.13;;;3.03;;
56201;SDS011;42117;50.360;3.508;2023-04-01T12:51:33;3.30;;;3.00;;
56201;SDS011;42117;50.360;3.508;2023-04-01T12:54:09;2.53;;;2.42;;
56201;SDS011;42117;50.360;3.508;2023-04-01T13:22:11;3.38;;;3.13;;
56201;SDS011;42117;50.360;3.508;2023-04-01T13:24:43;2.80;;;2.60;;
56201;SDS011;42117;50.360;3.508;2023-04-01T13:32:46;3.63;;;3.40;;
56201;SDS011;42117;50.360;3.508;2023-04-01T13:37:48;3.33;;;3.10;;
56201;SDS011;42117;50.360;3.508;2023-04-01T13:42:48;3.42;;;3.13;;
56201;SDS011;42117;50.360;3.508;2023-04-01T13:45:15;3.17;;;2.97;;
56201;SDS011;42117;50.360;3.508;2023-04-01T13:50:17;4.18;;;3.75;;
56201;SDS011;42117;50.360;3.508;2023-04-01T14:26:50;3.47;;;3.28;;
56201;SDS011;42117;50.360;3.508;2023-04-01T14:29:36;3.60;;;2.88;;
56201;SDS011;42117;50.360;3.508;2023-04-01T14:45:34;2.95;;;2.75;;
56201;SDS011;42117;50.360;3.508;2023-04-01T14:50:40;3.25;;;3.10;;
56201;SDS011;42117;50.360;3.508;2023-04-01T14:58:10;3.20;;;3.00;;
56201;SDS011;42117;50.360;3.508;2023-04-01T15:03:12;3.05;;;2.80;;
56201;SDS011;42117;50.360;3.508;2023-04-01T15:13:41;3.20;;;3.00;;
56201;SDS011;42117;50.360;3.508;2023-04-01T15:16:13;2.67;;;2.47;;
56201;SDS011;42117;50.360;3.508;2023-04-01T15:29:22;4.03;;;3.72;;
56201;SDS011;42117;50.360;3.508;2023-04-01T15:34:27;2.63;;;2.53;;
56201;SDS011;42117;50.360;3.508;2023-04-01T15:39:35;3.72;;;3.42;;
56201;SDS011;42117;50.360;3.508;2023-04-01T15:42:23;4.88;;;4.22;;
56201;SDS011;42117;50.360;3.508;2023-04-01T15:49:52;3.30;;;3.00;;
56201;SDS011;42117;50.360;3.508;2023-04-01T15:52:35;3.35;;;3.13;;
56201;SDS011;42117;50.360;3.508;2023-04-01T16:08:11;1.85;;;1.85;;
56201;SDS011;42117;50.360;3.508;2023-04-01T16:13:29;2.20;;;2.10;;
56201;SDS011;42117;50.360;3.508;2023-04-01T16:18:45;2.13;;;1.92;;
56201;SDS011;42117;50.360;3.508;2023-04-01T16:21:24;2.08;;;2.00;;
56201;SDS011;42117;50.360;3.508;2023-04-01T16:23:55;2.10;;;2.00;;
56201;SDS011;42117;50.360;3.508;2023-04-01T16:26:24;1.90;;;1.90;;
56201;SDS011;42117;50.360;3.508;2023-04-01T16:33:58;2.10;;;2.00;;
56201;SDS011;42117;50.360;3.508;2023-04-01T16:44:22;2.35;;;2.20;;
56201;SDS011;42117;50.360;3.508;2023-04-01T16:46:56;2.33;;;2.22;;
56201;SDS011;42117;50.360;3.508;2023-04-01T16:49:24;2.10;;;2.00;;
56201;SDS011;42117;50.360;3.508;2023-04-01T16:59:14;2.05;;;2.05;;
56201;SDS011;42117;50.360;3.508;2023-04-01T17:04:10;2.25;;;2.25;;
56201;SDS011;42117;50.360;3.508;2023-04-01T17:06:43;2.63;;;2.53;;
56201;SDS011;42117;50.360;3.508;2023-04-01T17:11:42;2.90;;;2.70;;
56201;SDS011;42117;50.360;3.508;2023-04-01T17:14:18;2.30;;;2.30;;
56201;SDS011;42117;50.360;3.508;2023-04-01T17:16:53;3.63;;;2.50;;
56201;SDS011;42117;50.360;3.508;2023-04-01T17:30:28;3.05;;;2.80;;
56201;SDS011;42117;50.360;3.508;2023-04-01T17:35:51;2.70;;;2.60;;
56201;SDS011;42117;50.360;3.508;2023-04-01T17:38:21;2.30;;;2.30;;
56201;SDS011;42117;50.360;3.508;2023-04-01T17:41:01;2.10;;;2.00;;
56201;SDS011;42117;50.360;3.508;2023-04-01T17:45:56;2.55;;;2.45;;
56201;SDS011;42117;50.360;3.508;2023-04-01T17:48:36;2.80;;;2.60;;
56201;SDS011;42117;50.360;3.508;2023-04-01T17:53:36;3.25;;;2.30;;
56201;SDS011;42117;50.360;3.508;2023-04-01T18:06:08;3.08;;;2.85;;
56201;SDS011;42117;50.360;3.508;2023-04-01T18:11:34;2.70;;;2.60;;
56201;SDS011;42117;50.360;3.508;2023-04-01T18:14:03;2.80;;;2.60;;
56201;SDS011;42117;50.360;3.508;2023-04-01T18:19:23;2.50;;;2.40;;
56201;SDS011;42117;50.360;3.508;2023-04-01T18:22:34;2.30;;;2.20;;
56201;SDS011;42117;50.360;3.508;2023-04-01T18:29:36;3.25;;;3.05;;
56201;SDS011;42117;50.360;3.508;2023-04-01T18:34:43;2.50;;;2.40;;
56201;SDS011;42117;50.360;3.508;2023-04-01T18:37:23;3.58;;;2.58;;
56201;SDS011;42117;50.360;3.508;2023-04-01T18:39:54;2.15;;;2.05;;
56201;SDS011;42117;50.360;3.508;2023-04-01T18:42:31;3.38;;;2.72;;
56201;SDS011;42117;50.360;3.508;2023-04-01T18:50:06;3.55;;;2.40;;
56201;SDS011;42117;50.360;3.508;2023-04-01T18:52:37;1.85;;;1.85;;
56201;SDS011;42117;50.360;3.508;2023-04-01T18:55:21;2.10;;;2.00;;
56201;SDS011;42117;50.360;3.508;2023-04-01T18:57:52;2.63;;;2.20;;
56201;SDS011;42117;50.360;3.508;2023-04-01T19:00:32;2.45;;;2.25;;
56201;SDS011;42117;50.360;3.508;2023-04-01T19:05:39;2.30;;;2.20;;
56201;SDS011;42117;50.360;3.508;2023-04-01T19:15:43;2.40;;;2.30;;
56201;SDS011;42117;50.360;3.508;2023-04-01T19:18:22;4.97;;;2.20;;
56201;SDS011;42117;50.360;3.508;2023-04-01T19:23:48;4.72;;;2.20;;
56201;SDS011;42117;50.360;3.508;2023-04-01T19:26:22;2.87;;;2.67;;
56201;SDS011;42117;50.360;3.508;2023-04-01T19:39:00;2.40;;;2.30;;
56201;SDS011;42117;50.360;3.508;2023-04-01T19:46:43;3.05;;;2.70;;
56201;SDS011;42117;50.360;3.508;2023-04-01T19:49:17;2.45;;;2.35;;
56201;SDS011;42117;50.360;3.508;2023-04-01T19:54:35;2.50;;;2.40;;
56201;SDS011;42117;50.360;3.508;2023-04-01T20:04:44;3.50;;;3.17;;
56201;SDS011;42117;50.360;3.508;2023-04-01T20:07:24;3.30;;;3.10;;
56201;SDS011;42117;50.360;3.508;2023-04-01T20:15:19;3.90;;;2.90;;
56201;SDS011;42117;50.360;3.508;2023-04-01T20:17:46;3.42;;;3.13;;
56201;SDS011;42117;50.360;3.508;2023-04-01T20:20:15;3.22;;;3.00;;
56201;SDS011;42117;50.360;3.508;2023-04-01T20:25:25;3.17;;;2.85;;
56201;SDS011;42117;50.360;3.508;2023-04-01T20:46:27;4.57;;;4.13;;
56201;SDS011;42117;50.360;3.508;2023-04-01T20:51:23;5.72;;;4.05;;
56201;SDS011;42117;50.360;3.508;2023-04-01T20:54:02;5.72;;;3.92;;
56201;SDS011;42117;50.360;3.508;2023-04-01T21:04:40;4.28;;;3.97;;
56201;SDS011;42117;50.360;3.508;2023-04-01T21:07:13;10.83;;;4.80;;
56201;SDS011;42117;50.360;3.508;2023-04-01T21:25:22;8.13;;;5.03;;
56201;SDS011;42117;50.360;3.508;2023-04-01T21:30:47;5.90;;;5.00;;
56201;SDS011;42117;50.360;3.508;2023-04-01T22:04:39;15.35;;;7.60;;
56201;SDS011;42117;50.360;3.508;2023-04-01T22:07:20;8.48;;;6.72;;
56201;SDS011;42117;50.360;3.508;2023-04-01T22:09:56;11.43;;;7.17;;
56201;SDS011;42117;50.360;3.508;2023-04-01T22:12:27;13.65;;;7.97;;
56201;SDS011;42117;50.360;3.508;2023-04-01T22:15:04;12.48;;;7.00;;
56201;SDS011;42117;50.360;3.508;2023-04-01T22:28:03;19.15;;;7.57;;
56201;SDS011;42117;50.360;3.508;2023-04-01T22:30:41;19.33;;;7.88;;
56201;SDS011;42117;50.360;3.508;2023-04-01T22:34:12;18.23;;;8.20;;
56201;SDS011;42117;50.360;3.508;2023-04-01T22:36:12;19.52;;;7.97;;
56201;SDS011;42117;50.360;3.508;2023-04-01T22:41:19;19.25;;;8.20;;
56201;SDS011;42117;50.360;3.508;2023-04-01T22:43:51;19.55;;;8.20;;
56201;SDS011;42117;50.360;3.508;2023-04-01T22:49:47;16.17;;;8.77;;
56201;SDS011;42117;50.360;3.508;2023-04-01T22:51:43;12.35;;;7.03;;
56201;SDS011;42117;50.360;3.508;2023-04-01T22:56:37;11.70;;;6.45;;
56201;SDS011;42117;50.360;3.508;2023-04-01T23:01:32;13.50;;;8.27;;
56201;SDS011;42117;50.360;3.508;2023-04-01T23:04:02;14.35;;;7.40;;
56201;SDS011;42117;50.360;3.508;2023-04-01T23:06:31;21.65;;;8.05;;
56201;SDS011;42117;50.360;3.508;2023-04-01T23:09:13;15.32;;;7.70;;
56201;SDS011;42117;50.360;3.508;2023-04-01T23:11:44;15.85;;;7.50;;
56201;SDS011;42117;50.360;3.508;2023-04-01T23:19:24;19.55;;;7.20;;
56201;SDS011;42117;50.360;3.508;2023-04-01T23:22:39;15.65;;;7.53;;
56201;SDS011;42117;50.360;3.508;2023-04-01T23:24:44;18.27;;;8.50;;
56201;SDS011;42117;50.360;3.508;2023-04-01T23:27:32;16.00;;;7.50;;
56201;SDS011;42117;50.360;3.508;2023-04-01T23:30:02;17.08;;;6.97;;
56201;SDS011;42117;50.360;3.508;2023-04-01T23:32:28;20.38;;;6.60;;
56201;SDS011;42117;50.360;3.508;2023-04-01T23:34:55;20.70;;;8.60;;
56201;SDS011;42117;50.360;3.508;2023-04-01T23:37:22;21.67;;;8.43;;
56201;SDS011;42117;50.360;3.508;2023-04-01T23:39:49;17.10;;;7.47;;
56201;SDS011;42117;50.360;3.508;2023-04-01T23:42:19;21.05;;;8.93;;
56201;SDS011;42117;50.360;3.508;2023-04-01T23:44:48;20.15;;;8.50;;
56201;SDS011;42117;50.360;3.508;2023-04-01T23:47:19;25.40;;;10.43;;
56201;SDS011;42117;50.360;3.508;2023-04-01T23:49:51;15.10;;;8.90;;
56201;SDS011;42117;50.360;3.508;2023-04-01T23:52:23;31.67;;;10.75;;
56201;SDS011;42117;50.360;3.508;2023-04-01T23:57:22;23.92;;;9.45;;
